X  CloseMetar Aviation Weather Data     LEVC Valencia

Temperatura

23°C Temperatura

16°C Punto de rocío

65% Humedad



Viento

 8 KM/H

 5 MPH

 2 M/S

 4 KTS



300°
WNW
Condiciones actuales

Nubes mayormente dispersas Nubes mayormente dispersas
Presión 1015.92 (hPa) - 30 (in)
Visibilidad 6.2 (mi) - 10 (km)
Aeropuerto
Airport-code LEVC

localidad Valencia 18 (km)

Metar:
LEVC 190630Z 30004KT 9999 SCT018 23/16 Q1016 NOSIG

Hora: 19-07-2019 08:30